sensor_id;sensor_type;location;lat;lon;timestamp;temperature;humidity
10263;DHT22;5177;50.068;8.156;2023-04-08T00:00:00;7.80;99.90
10263;DHT22;5177;50.068;8.156;2023-04-08T00:02:26;7.80;99.90
10263;DHT22;5177;50.068;8.156;2023-04-08T00:04:51;7.70;99.90
10263;DHT22;5177;50.068;8.156;2023-04-08T00:07:17;7.70;99.90
10263;DHT22;5177;50.068;8.156;2023-04-08T00:09:42;7.70;99.90
10263;DHT22;5177;50.068;8.156;2023-04-08T00:12:08;7.70;99.90
10263;DHT22;5177;50.068;8.156;2023-04-08T00:14:33;7.70;99.90
10263;DHT22;5177;50.068;8.156;2023-04-08T00:16:59;7.70;99.90
10263;DHT22;5177;50.068;8.156;2023-04-08T00:19:25;7.70;99.90
10263;DHT22;5177;50.068;8.156;2023-04-08T00:21:51;7.70;99.90
10263;DHT22;5177;50.068;8.156;2023-04-08T00:24:17;7.70;99.90
10263;DHT22;5177;50.068;8.156;2023-04-08T00:26:42;7.80;99.90
10263;DHT22;5177;50.068;8.156;2023-04-08T00:29:08;7.70;99.90
10263;DHT22;5177;50.068;8.156;2023-04-08T00:31:33;7.70;99.90
10263;DHT22;5177;50.068;8.156;2023-04-08T00:33:59;7.70;99.90
10263;DHT22;5177;50.068;8.156;2023-04-08T00:36:24;7.70;99.90
10263;DHT22;5177;50.068;8.156;2023-04-08T00:38:51;7.80;99.90
10263;DHT22;5177;50.068;8.156;2023-04-08T00:41:17;7.80;99.90
10263;DHT22;5177;50.068;8.156;2023-04-08T00:43:42;7.80;99.90
10263;DHT22;5177;50.068;8.156;2023-04-08T00:46:08;7.80;99.90
10263;DHT22;5177;50.068;8.156;2023-04-08T00:48:34;7.90;99.90
10263;DHT22;5177;50.068;8.156;2023-04-08T00:50:59;7.90;99.90
10263;DHT22;5177;50.068;8.156;2023-04-08T00:53:25;7.90;99.90
10263;DHT22;5177;50.068;8.156;2023-04-08T00:55:50;7.90;99.90
10263;DHT22;5177;50.068;8.156;2023-04-08T00:58:17;7.90;99.90
10263;DHT22;5177;50.068;8.156;2023-04-08T01:00:45;8.00;99.90
10263;DHT22;5177;50.068;8.156;2023-04-08T01:03:20;7.90;99.90
10263;DHT22;5177;50.068;8.156;2023-04-08T01:05:55;7.90;99.90
10263;DHT22;5177;50.068;8.156;2023-04-08T01:08:24;7.90;99.90
10263;DHT22;5177;50.068;8.156;2023-04-08T01:10:51;8.00;99.90
10263;DHT22;5177;50.068;8.156;2023-04-08T01:13:18;7.90;99.90
10263;DHT22;5177;50.068;8.156;2023-04-08T01:15:44;7.90;99.90
10263;DHT22;5177;50.068;8.156;2023-04-08T01:18:11;7.90;99.90
10263;DHT22;5177;50.068;8.156;2023-04-08T01:20:38;7.90;99.90
10263;DHT22;5177;50.068;8.156;2023-04-08T01:23:17;8.00;99.90
10263;DHT22;5177;50.068;8.156;2023-04-08T01:25:51;8.00;99.90
10263;DHT22;5177;50.068;8.156;2023-04-08T01:28:18;8.00;99.90
10263;DHT22;5177;50.068;8.156;2023-04-08T01:30:43;8.00;99.90
10263;DHT22;5177;50.068;8.156;2023-04-08T01:33:11;8.00;99.90
10263;DHT22;5177;50.068;8.156;2023-04-08T01:35:37;8.10;99.90
10263;DHT22;5177;50.068;8.156;2023-04-08T01:38:04;8.10;99.90
10263;DHT22;5177;50.068;8.156;2023-04-08T01:40:31;8.10;99.90
10263;DHT22;5177;50.068;8.156;2023-04-08T01:42:57;8.10;99.90
10263;DHT22;5177;50.068;8.156;2023-04-08T01:45:23;8.10;99.90
10263;DHT22;5177;50.068;8.156;2023-04-08T01:47:49;8.10;99.90
10263;DHT22;5177;50.068;8.156;2023-04-08T01:50:16;8.10;99.90
10263;DHT22;5177;50.068;8.156;2023-04-08T01:52:45;8.10;99.90
10263;DHT22;5177;50.068;8.156;2023-04-08T01:55:12;8.10;99.90
10263;DHT22;5177;50.068;8.156;2023-04-08T01:57:37;8.10;99.90
10263;DHT22;5177;50.068;8.156;2023-04-08T02:00:07;8.10;99.90
10263;DHT22;5177;50.068;8.156;2023-04-08T02:02:37;8.10;99.90
10263;DHT22;5177;50.068;8.156;2023-04-08T02:05:03;8.10;99.90
10263;DHT22;5177;50.068;8.156;2023-04-08T02:07:28;8.10;99.90
10263;DHT22;5177;50.068;8.156;2023-04-08T02:09:55;8.10;99.90
10263;DHT22;5177;50.068;8.156;2023-04-08T02:12:20;8.10;99.90
10263;DHT22;5177;50.068;8.156;2023-04-08T02:14:46;8.10;99.90
10263;DHT22;5177;50.068;8.156;2023-04-08T02:17:13;8.20;99.90
10263;DHT22;5177;50.068;8.156;2023-04-08T02:24:58;8.20;99.90
10263;DHT22;5177;50.068;8.156;2023-04-08T02:27:23;8.20;99.90
10263;DHT22;5177;50.068;8.156;2023-04-08T02:29:51;8.20;99.90
10263;DHT22;5177;50.068;8.156;2023-04-08T02:32:18;8.30;99.90
10263;DHT22;5177;50.068;8.156;2023-04-08T02:34:44;8.30;99.90
10263;DHT22;5177;50.068;8.156;2023-04-08T02:37:10;8.30;99.90
10263;DHT22;5177;50.068;8.156;2023-04-08T02:39:36;8.20;99.90
10263;DHT22;5177;50.068;8.156;2023-04-08T02:42:02;8.20;99.90
10263;DHT22;5177;50.068;8.156;2023-04-08T02:44:28;8.30;99.90
10263;DHT22;5177;50.068;8.156;2023-04-08T02:46:53;8.20;99.90
10263;DHT22;5177;50.068;8.156;2023-04-08T02:49:19;8.20;99.90
10263;DHT22;5177;50.068;8.156;2023-04-08T02:51:45;8.20;99.90
10263;DHT22;5177;50.068;8.156;2023-04-08T02:54:10;8.10;99.90
10263;DHT22;5177;50.068;8.156;2023-04-08T02:56:36;8.10;99.90
10263;DHT22;5177;50.068;8.156;2023-04-08T02:59:01;8.00;99.90
10263;DHT22;5177;50.068;8.156;2023-04-08T03:01:26;7.90;99.90
10263;DHT22;5177;50.068;8.156;2023-04-08T03:03:52;7.90;99.90
10263;DHT22;5177;50.068;8.156;2023-04-08T03:06:17;7.80;99.90
10263;DHT22;5177;50.068;8.156;2023-04-08T03:08:43;7.70;99.90
10263;DHT22;5177;50.068;8.156;2023-04-08T03:11:08;7.60;99.90
10263;DHT22;5177;50.068;8.156;2023-04-08T03:13:34;7.60;99.90
10263;DHT22;5177;50.068;8.156;2023-04-08T03:16:00;7.50;99.90
10263;DHT22;5177;50.068;8.156;2023-04-08T03:18:25;7.50;99.90
10263;DHT22;5177;50.068;8.156;2023-04-08T03:20:51;7.40;99.90
10263;DHT22;5177;50.068;8.156;2023-04-08T03:23:16;7.40;99.90
10263;DHT22;5177;50.068;8.156;2023-04-08T03:25:42;7.30;99.90
10263;DHT22;5177;50.068;8.156;2023-04-08T03:28:07;7.30;99.90
10263;DHT22;5177;50.068;8.156;2023-04-08T03:30:33;7.30;99.90
10263;DHT22;5177;50.068;8.156;2023-04-08T03:32:58;7.20;99.90
10263;DHT22;5177;50.068;8.156;2023-04-08T03:35:24;7.20;99.90
10263;DHT22;5177;50.068;8.156;2023-04-08T03:37:49;7.20;99.90
10263;DHT22;5177;50.068;8.156;2023-04-08T03:40:15;7.10;99.90
10263;DHT22;5177;50.068;8.156;2023-04-08T03:42:40;7.10;99.90
10263;DHT22;5177;50.068;8.156;2023-04-08T03:45:06;7.10;99.90
10263;DHT22;5177;50.068;8.156;2023-04-08T03:47:32;7.10;99.90
10263;DHT22;5177;50.068;8.156;2023-04-08T03:49:58;7.00;99.90
10263;DHT22;5177;50.068;8.156;2023-04-08T03:52:23;7.00;99.90
10263;DHT22;5177;50.068;8.156;2023-04-08T03:54:49;6.90;99.90
10263;DHT22;5177;50.068;8.156;2023-04-08T03:57:15;6.90;99.90
10263;DHT22;5177;50.068;8.156;2023-04-08T03:59:40;6.80;99.90
10263;DHT22;5177;50.068;8.156;2023-04-08T04:02:06;6.80;99.90
10263;DHT22;5177;50.068;8.156;2023-04-08T04:04:31;6.80;99.90
10263;DHT22;5177;50.068;8.156;2023-04-08T04:06:57;6.70;99.90
10263;DHT22;5177;50.068;8.156;2023-04-08T04:09:23;6.70;99.90
10263;DHT22;5177;50.068;8.156;2023-04-08T04:11:48;6.70;99.90
10263;DHT22;5177;50.068;8.156;2023-04-08T04:14:14;6.60;99.90
10263;DHT22;5177;50.068;8.156;2023-04-08T04:16:40;6.60;99.90
10263;DHT22;5177;50.068;8.156;2023-04-08T04:19:05;6.60;99.90
10263;DHT22;5177;50.068;8.156;2023-04-08T04:21:31;6.70;99.90
10263;DHT22;5177;50.068;8.156;2023-04-08T04:23:56;6.60;99.90
10263;DHT22;5177;50.068;8.156;2023-04-08T04:26:22;6.50;99.90
10263;DHT22;5177;50.068;8.156;2023-04-08T04:28:47;6.50;99.90
10263;DHT22;5177;50.068;8.156;2023-04-08T04:31:19;6.50;99.90
10263;DHT22;5177;50.068;8.156;2023-04-08T04:33:46;6.50;99.90
10263;DHT22;5177;50.068;8.156;2023-04-08T04:36:12;6.60;99.90
10263;DHT22;5177;50.068;8.156;2023-04-08T04:38:37;6.50;99.90
10263;DHT22;5177;50.068;8.156;2023-04-08T04:41:03;6.60;99.90
10263;DHT22;5177;50.068;8.156;2023-04-08T04:43:28;6.60;99.90
10263;DHT22;5177;50.068;8.156;2023-04-08T04:45:54;6.60;99.90
10263;DHT22;5177;50.068;8.156;2023-04-08T04:48:21;6.50;99.90
10263;DHT22;5177;50.068;8.156;2023-04-08T04:50:56;6.50;99.90
10263;DHT22;5177;50.068;8.156;2023-04-08T04:53:22;6.50;99.90
10263;DHT22;5177;50.068;8.156;2023-04-08T04:55:48;6.40;99.90
10263;DHT22;5177;50.068;8.156;2023-04-08T04:58:14;6.40;99.90
10263;DHT22;5177;50.068;8.156;2023-04-08T05:00:40;6.30;99.90
10263;DHT22;5177;50.068;8.156;2023-04-08T05:03:05;6.30;99.90
10263;DHT22;5177;50.068;8.156;2023-04-08T05:05:31;6.30;99.90
10263;DHT22;5177;50.068;8.156;2023-04-08T05:07:56;6.20;99.90
10263;DHT22;5177;50.068;8.156;2023-04-08T05:10:22;6.20;99.90
10263;DHT22;5177;50.068;8.156;2023-04-08T05:12:47;6.20;99.90
10263;DHT22;5177;50.068;8.156;2023-04-08T05:15:13;6.20;99.90
10263;DHT22;5177;50.068;8.156;2023-04-08T05:17:38;6.20;99.90
10263;DHT22;5177;50.068;8.156;2023-04-08T05:20:04;6.20;99.90
10263;DHT22;5177;50.068;8.156;2023-04-08T05:22:30;6.10;99.90
10263;DHT22;5177;50.068;8.156;2023-04-08T05:24:55;6.20;99.90
10263;DHT22;5177;50.068;8.156;2023-04-08T05:27:21;6.20;99.90
10263;DHT22;5177;50.068;8.156;2023-04-08T05:29:46;6.20;99.90
10263;DHT22;5177;50.068;8.156;2023-04-08T05:32:12;6.20;99.90
10263;DHT22;5177;50.068;8.156;2023-04-08T05:34:37;6.20;99.90
10263;DHT22;5177;50.068;8.156;2023-04-08T05:37:03;6.20;99.90
10263;DHT22;5177;50.068;8.156;2023-04-08T05:39:28;6.20;99.90
10263;DHT22;5177;50.068;8.156;2023-04-08T05:41:54;6.20;99.90
10263;DHT22;5177;50.068;8.156;2023-04-08T05:44:20;6.20;99.90
10263;DHT22;5177;50.068;8.156;2023-04-08T05:46:45;6.30;99.90
10263;DHT22;5177;50.068;8.156;2023-04-08T05:49:11;6.30;99.90
10263;DHT22;5177;50.068;8.156;2023-04-08T05:51:37;6.50;99.90
10263;DHT22;5177;50.068;8.156;2023-04-08T05:54:03;6.40;99.90
10263;DHT22;5177;50.068;8.156;2023-04-08T05:56:28;6.50;99.90
10263;DHT22;5177;50.068;8.156;2023-04-08T05:58:56;6.60;99.90
10263;DHT22;5177;50.068;8.156;2023-04-08T06:01:22;6.60;99.90
10263;DHT22;5177;50.068;8.156;2023-04-08T06:03:47;6.60;99.90
10263;DHT22;5177;50.068;8.156;2023-04-08T06:06:13;6.70;99.90
10263;DHT22;5177;50.068;8.156;2023-04-08T06:08:38;6.80;99.90
10263;DHT22;5177;50.068;8.156;2023-04-08T06:11:04;6.80;99.90
10263;DHT22;5177;50.068;8.156;2023-04-08T06:13:30;6.90;99.90
10263;DHT22;5177;50.068;8.156;2023-04-08T06:15:56;7.00;99.90
10263;DHT22;5177;50.068;8.156;2023-04-08T06:18:21;7.10;99.90
10263;DHT22;5177;50.068;8.156;2023-04-08T06:20:47;7.20;99.90
10263;DHT22;5177;50.068;8.156;2023-04-08T06:23:12;7.30;99.90
10263;DHT22;5177;50.068;8.156;2023-04-08T06:25:38;7.40;99.90
10263;DHT22;5177;50.068;8.156;2023-04-08T06:28:03;7.50;99.90
10263;DHT22;5177;50.068;8.156;2023-04-08T06:30:29;7.60;99.90
10263;DHT22;5177;50.068;8.156;2023-04-08T06:32:54;7.70;99.90
10263;DHT22;5177;50.068;8.156;2023-04-08T06:35:20;7.70;99.90
10263;DHT22;5177;50.068;8.156;2023-04-08T06:37:45;7.80;99.90
10263;DHT22;5177;50.068;8.156;2023-04-08T06:40:11;7.80;99.90
10263;DHT22;5177;50.068;8.156;2023-04-08T06:42:36;7.90;99.90
10263;DHT22;5177;50.068;8.156;2023-04-08T06:45:05;7.90;99.90
10263;DHT22;5177;50.068;8.156;2023-04-08T06:47:31;7.90;99.90
10263;DHT22;5177;50.068;8.156;2023-04-08T06:49:57;7.80;99.90
10263;DHT22;5177;50.068;8.156;2023-04-08T06:52:23;7.80;99.90
10263;DHT22;5177;50.068;8.156;2023-04-08T06:54:49;7.90;99.90
10263;DHT22;5177;50.068;8.156;2023-04-08T06:57:15;7.90;99.90
10263;DHT22;5177;50.068;8.156;2023-04-08T06:59:40;7.80;99.90
10263;DHT22;5177;50.068;8.156;2023-04-08T07:02:06;7.80;99.90
10263;DHT22;5177;50.068;8.156;2023-04-08T07:04:31;7.80;99.90
10263;DHT22;5177;50.068;8.156;2023-04-08T07:06:57;7.80;99.90
10263;DHT22;5177;50.068;8.156;2023-04-08T07:09:22;7.80;99.90
10263;DHT22;5177;50.068;8.156;2023-04-08T07:11:48;7.80;99.90
10263;DHT22;5177;50.068;8.156;2023-04-08T07:14:13;7.90;99.90
10263;DHT22;5177;50.068;8.156;2023-04-08T07:16:39;7.90;99.90
10263;DHT22;5177;50.068;8.156;2023-04-08T07:19:04;8.00;99.90
10263;DHT22;5177;50.068;8.156;2023-04-08T07:21:31;8.10;99.90
10263;DHT22;5177;50.068;8.156;2023-04-08T07:23:56;8.00;99.90
10263;DHT22;5177;50.068;8.156;2023-04-08T07:26:21;8.30;99.90
10263;DHT22;5177;50.068;8.156;2023-04-08T07:28:47;8.30;99.90
10263;DHT22;5177;50.068;8.156;2023-04-08T07:31:16;8.30;99.90
10263;DHT22;5177;50.068;8.156;2023-04-08T07:33:42;8.40;99.90
10263;DHT22;5177;50.068;8.156;2023-04-08T07:36:08;8.50;99.90
10263;DHT22;5177;50.068;8.156;2023-04-08T07:38:34;8.60;99.90
10263;DHT22;5177;50.068;8.156;2023-04-08T07:41:00;8.70;99.90
10263;DHT22;5177;50.068;8.156;2023-04-08T07:43:25;8.80;99.90
10263;DHT22;5177;50.068;8.156;2023-04-08T07:45:51;8.90;99.90
10263;DHT22;5177;50.068;8.156;2023-04-08T07:48:17;9.00;99.90
10263;DHT22;5177;50.068;8.156;2023-04-08T07:50:42;9.00;99.90
10263;DHT22;5177;50.068;8.156;2023-04-08T07:53:09;9.00;99.90
10263;DHT22;5177;50.068;8.156;2023-04-08T07:55:35;9.10;99.90
10263;DHT22;5177;50.068;8.156;2023-04-08T07:58:00;9.10;99.90
10263;DHT22;5177;50.068;8.156;2023-04-08T08:00:26;9.40;99.90
10263;DHT22;5177;50.068;8.156;2023-04-08T08:02:52;9.50;99.90
10263;DHT22;5177;50.068;8.156;2023-04-08T08:05:17;9.50;99.90
10263;DHT22;5177;50.068;8.156;2023-04-08T08:07:43;9.50;99.90
10263;DHT22;5177;50.068;8.156;2023-04-08T08:10:08;9.70;99.90
10263;DHT22;5177;50.068;8.156;2023-04-08T08:12:35;9.80;99.90
10263;DHT22;5177;50.068;8.156;2023-04-08T08:15:00;9.90;99.90
10263;DHT22;5177;50.068;8.156;2023-04-08T08:17:26;9.90;99.90
10263;DHT22;5177;50.068;8.156;2023-04-08T08:19:54;10.00;99.90
10263;DHT22;5177;50.068;8.156;2023-04-08T08:22:19;9.90;99.90
10263;DHT22;5177;50.068;8.156;2023-04-08T08:24:45;9.90;99.90
10263;DHT22;5177;50.068;8.156;2023-04-08T08:27:11;9.90;99.90
10263;DHT22;5177;50.068;8.156;2023-04-08T08:29:37;9.90;99.90
10263;DHT22;5177;50.068;8.156;2023-04-08T08:32:03;9.90;99.90
10263;DHT22;5177;50.068;8.156;2023-04-08T08:34:28;9.90;99.90
10263;DHT22;5177;50.068;8.156;2023-04-08T08:36:54;10.00;99.90
10263;DHT22;5177;50.068;8.156;2023-04-08T08:39:20;10.10;99.90
10263;DHT22;5177;50.068;8.156;2023-04-08T08:41:46;10.20;99.90
10263;DHT22;5177;50.068;8.156;2023-04-08T08:44:11;10.20;99.90
10263;DHT22;5177;50.068;8.156;2023-04-08T08:46:40;10.20;99.90
10263;DHT22;5177;50.068;8.156;2023-04-08T08:49:07;10.30;99.90
10263;DHT22;5177;50.068;8.156;2023-04-08T08:51:33;10.50;99.90
10263;DHT22;5177;50.068;8.156;2023-04-08T08:54:02;10.40;99.90
10263;DHT22;5177;50.068;8.156;2023-04-08T08:56:28;10.50;99.90
10263;DHT22;5177;50.068;8.156;2023-04-08T08:58:54;10.40;99.90
10263;DHT22;5177;50.068;8.156;2023-04-08T09:01:29;10.40;99.90
10263;DHT22;5177;50.068;8.156;2023-04-08T09:06:41;10.30;99.90
10263;DHT22;5177;50.068;8.156;2023-04-08T09:09:07;10.30;99.90
10263;DHT22;5177;50.068;8.156;2023-04-08T09:11:39;10.10;99.90
10263;DHT22;5177;50.068;8.156;2023-04-08T09:14:16;10.20;99.90
10263;DHT22;5177;50.068;8.156;2023-04-08T09:16:41;10.30;99.90
10263;DHT22;5177;50.068;8.156;2023-04-08T09:19:08;10.40;99.90
10263;DHT22;5177;50.068;8.156;2023-04-08T09:21:34;10.40;99.90
10263;DHT22;5177;50.068;8.156;2023-04-08T09:24:00;10.40;99.90
10263;DHT22;5177;50.068;8.156;2023-04-08T09:26:26;10.30;99.90
10263;DHT22;5177;50.068;8.156;2023-04-08T09:29:04;10.30;99.90
10263;DHT22;5177;50.068;8.156;2023-04-08T09:31:34;10.30;99.90
10263;DHT22;5177;50.068;8.156;2023-04-08T09:34:12;10.40;99.90
10263;DHT22;5177;50.068;8.156;2023-04-08T09:36:38;10.30;99.90
10263;DHT22;5177;50.068;8.156;2023-04-08T09:39:04;10.30;99.90
10263;DHT22;5177;50.068;8.156;2023-04-08T09:41:34;10.30;99.90
10263;DHT22;5177;50.068;8.156;2023-04-08T09:44:00;10.30;99.90
10263;DHT22;5177;50.068;8.156;2023-04-08T09:49:00;10.40;99.90
10263;DHT22;5177;50.068;8.156;2023-04-08T09:51:39;10.40;99.90
10263;DHT22;5177;50.068;8.156;2023-04-08T09:54:09;10.60;99.90
10263;DHT22;5177;50.068;8.156;2023-04-08T09:56:40;10.60;99.90
10263;DHT22;5177;50.068;8.156;2023-04-08T09:59:15;10.60;99.90
10263;DHT22;5177;50.068;8.156;2023-04-08T10:01:44;10.70;99.90
10263;DHT22;5177;50.068;8.156;2023-04-08T10:04:14;10.80;99.90
10263;DHT22;5177;50.068;8.156;2023-04-08T10:06:41;10.70;99.90
10263;DHT22;5177;50.068;8.156;2023-04-08T10:09:07;10.80;99.90
10263;DHT22;5177;50.068;8.156;2023-04-08T10:11:33;10.80;99.90
10263;DHT22;5177;50.068;8.156;2023-04-08T10:13:58;10.80;99.90
10263;DHT22;5177;50.068;8.156;2023-04-08T10:16:24;10.90;99.90
10263;DHT22;5177;50.068;8.156;2023-04-08T10:18:52;10.90;99.90
10263;DHT22;5177;50.068;8.156;2023-04-08T10:21:33;11.00;99.90
10263;DHT22;5177;50.068;8.156;2023-04-08T10:23:59;11.10;99.90
10263;DHT22;5177;50.068;8.156;2023-04-08T10:26:37;11.30;99.90
10263;DHT22;5177;50.068;8.156;2023-04-08T10:29:28;11.20;99.90
10263;DHT22;5177;50.068;8.156;2023-04-08T10:31:51;11.20;99.90
10263;DHT22;5177;50.068;8.156;2023-04-08T10:34:17;11.10;99.90
10263;DHT22;5177;50.068;8.156;2023-04-08T10:36:43;11.20;99.90
10263;DHT22;5177;50.068;8.156;2023-04-08T10:39:09;11.40;99.90
10263;DHT22;5177;50.068;8.156;2023-04-08T10:41:34;11.50;99.90
10263;DHT22;5177;50.068;8.156;2023-04-08T10:44:03;11.50;99.90
10263;DHT22;5177;50.068;8.156;2023-04-08T10:46:35;11.60;99.90
10263;DHT22;5177;50.068;8.156;2023-04-08T10:49:01;11.70;99.90
10263;DHT22;5177;50.068;8.156;2023-04-08T10:51:30;11.90;99.90
10263;DHT22;5177;50.068;8.156;2023-04-08T10:54:04;12.10;99.90
10263;DHT22;5177;50.068;8.156;2023-04-08T10:56:30;12.20;99.90
10263;DHT22;5177;50.068;8.156;2023-04-08T10:58:55;12.20;99.90
10263;DHT22;5177;50.068;8.156;2023-04-08T11:01:21;12.50;99.90
10263;DHT22;5177;50.068;8.156;2023-04-08T11:03:47;12.70;99.90
10263;DHT22;5177;50.068;8.156;2023-04-08T11:06:12;12.60;99.90
10263;DHT22;5177;50.068;8.156;2023-04-08T11:08:38;12.60;99.90
10263;DHT22;5177;50.068;8.156;2023-04-08T11:11:04;12.70;99.90
10263;DHT22;5177;50.068;8.156;2023-04-08T11:13:33;12.70;99.90
10263;DHT22;5177;50.068;8.156;2023-04-08T11:16:00;12.70;99.90
10263;DHT22;5177;50.068;8.156;2023-04-08T11:18:26;12.60;99.90
10263;DHT22;5177;50.068;8.156;2023-04-08T11:20:53;12.60;99.90
10263;DHT22;5177;50.068;8.156;2023-04-08T11:23:18;12.50;99.90
10263;DHT22;5177;50.068;8.156;2023-04-08T11:25:45;12.60;99.90
10263;DHT22;5177;50.068;8.156;2023-04-08T11:28:11;12.40;99.90
10263;DHT22;5177;50.068;8.156;2023-04-08T11:30:38;12.50;99.90
10263;DHT22;5177;50.068;8.156;2023-04-08T11:33:03;12.60;99.90
10263;DHT22;5177;50.068;8.156;2023-04-08T11:35:29;12.70;99.90
10263;DHT22;5177;50.068;8.156;2023-04-08T11:37:55;12.80;99.90
10263;DHT22;5177;50.068;8.156;2023-04-08T11:40:21;13.00;99.90
10263;DHT22;5177;50.068;8.156;2023-04-08T11:42:48;13.30;99.90
10263;DHT22;5177;50.068;8.156;2023-04-08T11:45:15;13.30;99.90
10263;DHT22;5177;50.068;8.156;2023-04-08T11:47:41;13.50;99.90
10263;DHT22;5177;50.068;8.156;2023-04-08T11:50:06;13.70;99.90
10263;DHT22;5177;50.068;8.156;2023-04-08T11:52:42;14.00;99.90
10263;DHT22;5177;50.068;8.156;2023-04-08T11:55:12;14.50;99.90
10263;DHT22;5177;50.068;8.156;2023-04-08T11:57:45;15.00;99.90
10263;DHT22;5177;50.068;8.156;2023-04-08T12:00:11;15.30;99.90
10263;DHT22;5177;50.068;8.156;2023-04-08T12:02:36;15.40;99.90
10263;DHT22;5177;50.068;8.156;2023-04-08T12:05:02;15.20;99.90
10263;DHT22;5177;50.068;8.156;2023-04-08T12:07:27;15.30;99.90
10263;DHT22;5177;50.068;8.156;2023-04-08T12:09:53;15.60;99.90
10263;DHT22;5177;50.068;8.156;2023-04-08T12:12:19;15.50;99.90
10263;DHT22;5177;50.068;8.156;2023-04-08T12:14:44;15.60;99.90
10263;DHT22;5177;50.068;8.156;2023-04-08T12:17:10;15.30;99.90
10263;DHT22;5177;50.068;8.156;2023-04-08T12:19:36;15.40;99.90
10263;DHT22;5177;50.068;8.156;2023-04-08T12:22:02;15.40;99.90
10263;DHT22;5177;50.068;8.156;2023-04-08T12:24:27;15.50;99.90
10263;DHT22;5177;50.068;8.156;2023-04-08T12:26:53;15.40;99.90
10263;DHT22;5177;50.068;8.156;2023-04-08T12:29:18;15.40;99.90
10263;DHT22;5177;50.068;8.156;2023-04-08T12:31:44;15.50;99.90
10263;DHT22;5177;50.068;8.156;2023-04-08T12:34:09;15.10;99.90
10263;DHT22;5177;50.068;8.156;2023-04-08T12:36:35;15.20;99.90
10263;DHT22;5177;50.068;8.156;2023-04-08T12:39:02;15.20;99.90
10263;DHT22;5177;50.068;8.156;2023-04-08T12:41:27;15.10;99.90
10263;DHT22;5177;50.068;8.156;2023-04-08T12:43:53;15.00;99.90
10263;DHT22;5177;50.068;8.156;2023-04-08T12:46:18;14.90;99.90
10263;DHT22;5177;50.068;8.156;2023-04-08T12:48:44;14.80;99.90
10263;DHT22;5177;50.068;8.156;2023-04-08T12:51:10;14.70;99.90
10263;DHT22;5177;50.068;8.156;2023-04-08T12:53:36;14.60;99.90
10263;DHT22;5177;50.068;8.156;2023-04-08T12:56:02;14.40;99.90
10263;DHT22;5177;50.068;8.156;2023-04-08T12:58:27;14.50;99.90
10263;DHT22;5177;50.068;8.156;2023-04-08T13:00:53;14.50;99.90
10263;DHT22;5177;50.068;8.156;2023-04-08T13:03:18;14.50;99.90
10263;DHT22;5177;50.068;8.156;2023-04-08T13:05:44;14.60;99.90
10263;DHT22;5177;50.068;8.156;2023-04-08T13:08:10;14.70;99.90
10263;DHT22;5177;50.068;8.156;2023-04-08T13:10:38;14.50;99.90
10263;DHT22;5177;50.068;8.156;2023-04-08T13:13:04;14.50;99.90
10263;DHT22;5177;50.068;8.156;2023-04-08T13:15:29;14.50;99.90
10263;DHT22;5177;50.068;8.156;2023-04-08T13:17:55;14.40;99.90
10263;DHT22;5177;50.068;8.156;2023-04-08T13:20:20;14.50;99.90
10263;DHT22;5177;50.068;8.156;2023-04-08T13:22:53;14.50;99.90
10263;DHT22;5177;50.068;8.156;2023-04-08T13:25:18;14.60;99.90
10263;DHT22;5177;50.068;8.156;2023-04-08T13:27:44;14.40;99.90
10263;DHT22;5177;50.068;8.156;2023-04-08T13:30:09;14.30;99.90
10263;DHT22;5177;50.068;8.156;2023-04-08T13:32:35;14.40;99.90
10263;DHT22;5177;50.068;8.156;2023-04-08T13:35:01;14.50;99.90
10263;DHT22;5177;50.068;8.156;2023-04-08T13:37:26;14.50;99.90
10263;DHT22;5177;50.068;8.156;2023-04-08T13:39:52;14.50;99.90
10263;DHT22;5177;50.068;8.156;2023-04-08T13:42:18;14.50;99.90
10263;DHT22;5177;50.068;8.156;2023-04-08T13:44:44;14.50;99.90
10263;DHT22;5177;50.068;8.156;2023-04-08T13:47:09;14.50;99.90
10263;DHT22;5177;50.068;8.156;2023-04-08T13:49:35;14.40;99.90
10263;DHT22;5177;50.068;8.156;2023-04-08T13:52:01;14.60;99.90
10263;DHT22;5177;50.068;8.156;2023-04-08T13:54:26;14.40;99.90
10263;DHT22;5177;50.068;8.156;2023-04-08T13:56:52;14.50;99.90
10263;DHT22;5177;50.068;8.156;2023-04-08T13:59:17;14.50;99.90
10263;DHT22;5177;50.068;8.156;2023-04-08T14:01:43;14.50;99.90
10263;DHT22;5177;50.068;8.156;2023-04-08T14:04:08;14.50;99.90
10263;DHT22;5177;50.068;8.156;2023-04-08T14:06:34;14.60;99.90
10263;DHT22;5177;50.068;8.156;2023-04-08T14:09:00;14.90;99.90
10263;DHT22;5177;50.068;8.156;2023-04-08T14:11:26;14.80;99.90
10263;DHT22;5177;50.068;8.156;2023-04-08T14:13:51;14.80;99.90
10263;DHT22;5177;50.068;8.156;2023-04-08T14:16:17;14.90;99.90
10263;DHT22;5177;50.068;8.156;2023-04-08T14:18:42;15.00;99.90
10263;DHT22;5177;50.068;8.156;2023-04-08T14:21:08;14.90;99.90
10263;DHT22;5177;50.068;8.156;2023-04-08T14:23:33;14.80;99.90
10263;DHT22;5177;50.068;8.156;2023-04-08T14:25:59;14.60;99.90
10263;DHT22;5177;50.068;8.156;2023-04-08T14:28:25;14.60;99.90
10263;DHT22;5177;50.068;8.156;2023-04-08T14:30:51;14.40;99.90
10263;DHT22;5177;50.068;8.156;2023-04-08T14:33:16;14.20;99.90
10263;DHT22;5177;50.068;8.156;2023-04-08T14:35:42;14.10;99.90
10263;DHT22;5177;50.068;8.156;2023-04-08T14:38:08;13.90;99.90
10263;DHT22;5177;50.068;8.156;2023-04-08T14:40:33;13.60;99.90
10263;DHT22;5177;50.068;8.156;2023-04-08T14:42:59;13.40;99.90
10263;DHT22;5177;50.068;8.156;2023-04-08T14:45:24;13.20;99.90
10263;DHT22;5177;50.068;8.156;2023-04-08T14:47:50;13.10;99.90
10263;DHT22;5177;50.068;8.156;2023-04-08T14:50:15;13.10;99.90
10263;DHT22;5177;50.068;8.156;2023-04-08T14:52:41;13.00;99.90
10263;DHT22;5177;50.068;8.156;2023-04-08T14:55:09;12.80;99.90
10263;DHT22;5177;50.068;8.156;2023-04-08T14:57:34;12.70;99.90
10263;DHT22;5177;50.068;8.156;2023-04-08T15:00:00;12.80;99.90
10263;DHT22;5177;50.068;8.156;2023-04-08T15:02:26;12.70;99.90
10263;DHT22;5177;50.068;8.156;2023-04-08T15:04:51;12.70;99.90
10263;DHT22;5177;50.068;8.156;2023-04-08T15:07:17;12.70;99.90
10263;DHT22;5177;50.068;8.156;2023-04-08T15:09:42;12.70;99.90
10263;DHT22;5177;50.068;8.156;2023-04-08T15:12:08;13.10;99.90
10263;DHT22;5177;50.068;8.156;2023-04-08T15:14:33;13.60;99.90
10263;DHT22;5177;50.068;8.156;2023-04-08T15:16:59;13.80;99.90
10263;DHT22;5177;50.068;8.156;2023-04-08T15:19:24;13.60;99.90
10263;DHT22;5177;50.068;8.156;2023-04-08T15:21:50;13.30;99.90
10263;DHT22;5177;50.068;8.156;2023-04-08T15:24:16;13.30;99.90
10263;DHT22;5177;50.068;8.156;2023-04-08T15:26:44;13.40;99.90
10263;DHT22;5177;50.068;8.156;2023-04-08T15:29:10;13.30;99.90
10263;DHT22;5177;50.068;8.156;2023-04-08T15:31:36;13.30;99.90
10263;DHT22;5177;50.068;8.156;2023-04-08T15:34:01;13.20;99.90
10263;DHT22;5177;50.068;8.156;2023-04-08T15:36:28;13.20;99.90
10263;DHT22;5177;50.068;8.156;2023-04-08T15:38:53;13.10;99.90
10263;DHT22;5177;50.068;8.156;2023-04-08T15:41:19;13.00;99.90
10263;DHT22;5177;50.068;8.156;2023-04-08T15:43:46;13.00;99.90
10263;DHT22;5177;50.068;8.156;2023-04-08T15:46:21;12.90;99.90
10263;DHT22;5177;50.068;8.156;2023-04-08T15:48:47;13.00;99.90
10263;DHT22;5177;50.068;8.156;2023-04-08T15:51:12;12.90;99.90
10263;DHT22;5177;50.068;8.156;2023-04-08T15:53:38;13.00;99.90
10263;DHT22;5177;50.068;8.156;2023-04-08T15:56:04;12.80;99.90
10263;DHT22;5177;50.068;8.156;2023-04-08T15:58:30;12.80;99.90